createdAt,value
2023-03-23T15:58:36.535Z,97355.44
2023-03-23T16:01:11.831Z,97356.72
2023-03-23T16:04:06.530Z,97348.97
2023-03-23T16:06:34.851Z,97351.16
2023-03-23T16:09:03.482Z,97354.13
2023-03-23T16:11:31.726Z,97355.63
2023-03-23T16:13:59.679Z,97356.97
2023-03-23T16:16:29.887Z,97359.88
2023-03-23T16:18:57.633Z,97365.03
2023-03-23T16:21:25.557Z,97360.88
2023-03-23T16:23:53.288Z,97355.44
2023-03-23T16:26:21.135Z,97355.84
2023-03-23T16:28:49.007Z,97349.75
2023-03-23T16:31:17.317Z,97360.66
2023-03-23T16:33:45.324Z,97361.03
2023-03-23T16:36:13.377Z,97362.31
2023-03-23T16:38:48.980Z,97362.16
2023-03-23T16:41:18.918Z,97358.81
2023-03-23T16:43:46.581Z,97364.09
2023-03-23T16:46:14.388Z,97373.94
2023-03-23T16:48:42.283Z,97369.94
2023-03-23T16:51:10.018Z,97375.44
2023-03-23T16:53:37.808Z,97372.78
2023-03-23T16:56:06.022Z,97375.31
2023-03-23T16:58:33.780Z,97378.31
2023-03-23T17:01:01.543Z,97371.09
2023-03-23T17:03:29.472Z,97376.22
2023-03-23T17:05:59.333Z,97372.72
2023-03-23T17:08:27.237Z,97375.97
2023-03-23T17:10:54.921Z,97376.84
2023-03-23T17:13:22.845Z,97375.44
2023-03-23T17:15:52.864Z,97374.81
2023-03-23T17:18:21.085Z,97381.44
2023-03-23T17:20:48.948Z,97377.97
2023-03-23T17:23:17.653Z,97395.00
2023-03-23T17:25:46.859Z,97386.63
2023-03-23T17:28:16.265Z,97385.25
2023-03-23T17:30:44.831Z,97386.72
2023-03-23T17:33:12.833Z,97398.31
2023-03-23T17:35:40.586Z,97391.56
2023-03-23T17:38:08.396Z,97395.00
2023-03-23T17:40:36.096Z,97400.97
2023-03-23T17:43:03.790Z,97408.50
2023-03-23T17:45:31.564Z,97402.16
2023-03-23T17:47:59.395Z,97414.25
2023-03-23T17:50:27.305Z,97415.75
2023-03-23T17:52:57.079Z,97416.34
2023-03-23T17:55:24.956Z,97420.19
2023-03-23T17:57:52.734Z,97431.69
2023-03-23T18:00:20.914Z,97429.38
2023-03-23T18:02:48.689Z,97430.28
2023-03-23T18:05:16.578Z,97432.34
2023-03-23T18:07:44.342Z,97425.78
2023-03-23T18:10:13.123Z,97432.94
2023-03-23T18:12:41.602Z,97437.03
2023-03-23T18:15:09.847Z,97441.19
2023-03-23T18:17:37.662Z,97439.09
2023-03-23T18:20:06.455Z,97441.22
2023-03-23T18:22:34.185Z,97440.03
2023-03-23T18:25:02.840Z,97442.25
2023-03-23T18:27:30.680Z,97448.84
2023-03-23T18:29:58.615Z,97451.03
2023-03-23T18:32:27.628Z,97447.03
2023-03-23T18:34:56.058Z,97456.94
2023-03-23T18:37:23.752Z,97456.72
2023-03-23T18:39:53.630Z,97463.59
2023-03-23T18:42:21.399Z,97457.63
2023-03-23T18:44:49.279Z,97469.03
2023-03-23T18:47:17.039Z,97472.69
2023-03-23T18:49:47.391Z,97464.16
2023-03-23T18:52:15.064Z,97474.09
2023-03-23T18:54:45.257Z,97472.25
2023-03-23T18:57:13.026Z,97475.13
2023-03-23T18:59:40.772Z,97466.97
2023-03-23T19:02:10.049Z,97477.34
2023-03-23T19:04:38.143Z,97478.94
2023-03-23T19:07:05.908Z,97480.84
2023-03-23T19:09:34.780Z,97479.56
2023-03-23T19:12:02.558Z,97482.25
2023-03-23T19:14:30.445Z,97482.56
2023-03-23T19:16:58.148Z,97482.16
2023-03-23T19:19:27.039Z,97488.78
2023-03-23T19:21:55.237Z,97485.91
2023-03-23T19:24:23.026Z,97483.97
2023-03-23T19:26:50.746Z,97491.69
2023-03-23T19:29:26.806Z,97492.75
2023-03-23T19:31:55.871Z,97498.72
2023-03-23T19:34:24.483Z,97501.56
2023-03-23T19:36:56.399Z,97492.91
2023-03-23T19:39:32.178Z,97501.69
2023-03-23T19:42:00.103Z,97497.06
2023-03-23T19:44:28.855Z,97507.69
2023-03-23T19:46:57.268Z,97511.47
2023-03-23T19:49:25.502Z,97510.41
2023-03-23T19:52:05.217Z,97504.06
2023-03-23T19:54:38.897Z,97502.28
2023-03-23T19:57:07.434Z,97519.72
2023-03-23T19:59:36.304Z,97525.72
2023-03-23T20:02:04.398Z,97529.06
2023-03-23T20:04:32.284Z,97530.91
2023-03-23T20:07:00.563Z,97528.28
2023-03-23T20:09:28.720Z,97535.22
2023-03-23T20:11:57.338Z,97521.53
2023-03-23T20:14:25.781Z,97518.94
2023-03-23T20:16:53.912Z,97518.56
2023-03-23T20:19:22.021Z,97515.38
2023-03-23T20:21:49.770Z,97526.50
2023-03-23T20:24:17.666Z,97528.88
2023-03-23T20:26:45.573Z,97518.94
2023-03-23T20:29:13.276Z,97513.31
2023-03-23T20:31:41.358Z,97517.41
2023-03-23T20:34:11.755Z,97509.88
2023-03-23T20:36:42.271Z,97515.59
2023-03-23T20:39:19.001Z,97518.78
2023-03-23T20:41:48.502Z,97510.38
2023-03-23T20:44:17.091Z,97510.69
2023-03-23T20:46:45.836Z,97508.91
2023-03-23T20:49:13.924Z,97508.53
2023-03-23T20:51:41.798Z,97510.72
2023-03-23T20:54:10.218Z,97503.38
2023-03-23T20:56:40.437Z,97505.69
2023-03-23T20:59:08.908Z,97499.72
2023-03-23T21:01:36.994Z,97497.81
2023-03-23T21:04:04.744Z,97498.56
2023-03-23T21:06:34.014Z,97501.31
2023-03-23T21:09:01.866Z,97505.28
2023-03-23T21:11:30.185Z,97512.00
2023-03-23T21:13:57.886Z,97506.22
2023-03-23T21:16:25.682Z,97500.75
2023-03-23T21:18:53.916Z,97502.19
2023-03-23T21:21:21.912Z,97488.72
2023-03-23T21:23:52.772Z,97502.56
2023-03-23T21:26:25.007Z,97500.63
2023-03-23T21:28:54.083Z,97499.81
2023-03-23T21:31:23.456Z,97497.06
2023-03-23T21:33:51.383Z,97498.44
2023-03-23T21:36:19.095Z,97503.38
2023-03-23T21:38:50.119Z,97510.53
2023-03-23T21:41:18.016Z,97510.84
2023-03-23T21:43:50.068Z,97503.31
2023-03-23T21:46:18.313Z,97509.44
2023-03-23T21:48:51.397Z,97504.50
2023-03-23T21:51:24.903Z,97517.59
2023-03-23T21:53:55.861Z,97507.72
2023-03-23T21:56:25.437Z,97508.19
2023-03-23T21:58:53.211Z,97505.31
2023-03-23T22:01:21.423Z,97502.16
2023-03-23T22:03:49.314Z,97508.78
2023-03-23T22:06:19.197Z,97516.81
2023-03-23T22:08:47.139Z,97507.13
2023-03-23T22:11:20.921Z,97501.13
2023-03-23T22:13:52.187Z,97505.34
2023-03-23T22:16:20.868Z,97513.81
2023-03-23T22:18:49.153Z,97507.53
2023-03-23T22:21:17.306Z,97504.88
2023-03-23T22:23:45.548Z,97504.72
2023-03-23T22:26:14.413Z,97493.41
2023-03-23T22:28:42.940Z,97496.59
2023-03-23T22:31:17.576Z,97506.59
2023-03-23T22:33:46.192Z,97503.56
2023-03-23T22:36:14.103Z,97507.81
2023-03-23T22:38:43.454Z,97509.22
2023-03-23T22:41:34.263Z,97501.53
2023-03-23T22:44:02.051Z,97505.75
2023-03-23T22:46:29.847Z,97512.31
2023-03-23T22:48:57.981Z,97508.88
2023-03-23T22:51:25.877Z,97500.59
2023-03-23T22:53:53.588Z,97502.25
2023-03-23T22:56:21.706Z,97495.00
2023-03-23T22:58:49.449Z,97503.41
2023-03-23T23:01:19.142Z,97506.56
2023-03-23T23:03:46.941Z,97511.94
2023-03-23T23:06:15.742Z,97517.00
2023-03-23T23:08:43.772Z,97510.69
2023-03-23T23:11:12.857Z,97502.81
2023-03-23T23:13:41.313Z,97507.63
2023-03-23T23:16:09.678Z,97497.94
2023-03-23T23:18:37.643Z,97494.69
2023-03-23T23:21:07.488Z,97497.88
2023-03-23T23:23:36.115Z,97488.44
2023-03-23T23:26:04.008Z,97494.63
2023-03-23T23:28:31.793Z,97483.47
2023-03-23T23:30:59.713Z,97482.63
2023-03-23T23:33:27.760Z,97472.56
2023-03-23T23:35:56.400Z,97475.09
2023-03-23T23:38:24.479Z,97471.28
2023-03-23T23:40:52.277Z,97462.75
2023-03-23T23:43:20.050Z,97459.56
2023-03-23T23:45:47.813Z,97452.16
2023-03-23T23:48:15.683Z,97463.56
2023-03-23T23:50:43.551Z,97473.59
2023-03-23T23:53:12.982Z,97465.34
2023-03-23T23:55:40.902Z,97471.75
2023-03-23T23:58:08.649Z,97471.41
